DW9106 Madrid ES current weather conditions

sailwx.info

Wind from 062 at 6 knots gusting 11

Air temperature 13.3° C
Dewpoint 7.8° C

Last reported at 2015-Sep-05 03:41 UTC.
Time now 2015-Sep-05 05:51 UTC

Location: N 40°23' W 003°38'.
View on Google Maps.

See reports from other nearby stations

  
Tides and Currents Weather Stations Pressure Air Temp Water Temp Dewpoint Dewpoint Depression Visibility Wind Speed Wind Dir Waves Ship Positions
date/time (UTC)wind fromknots sea level pressurealtimeterstation pressurevisibilityair tempwater tempwave heightnotes
2015-Sep-05 03:41 062 6 gusting 11 13.3
2015-Sep-05 03:26 075 4 gusting 10 13.9
2015-Sep-05 03:11 051 4 gusting 12 13.9
2015-Sep-05 02:56 036 4 gusting 9 13.9
2015-Sep-05 02:41 039 6 gusting 11 13.9
2015-Sep-05 02:26 022 6 gusting 9 14.4
2015-Sep-05 02:11 091 3 gusting 8 14.4
2015-Sep-05 01:56 049 3 gusting 9 14.4
2015-Sep-05 01:41 090 5 gusting 11 14.4
2015-Sep-05 01:26 082 6 gusting 12 15.0
2015-Sep-05 01:11 049 6 gusting 15 15.0
2015-Sep-05 00:56 065 6 gusting 13 15.0
2015-Sep-05 00:41 009 6 gusting 11 15.0
2015-Sep-05 00:25 034 6 gusting 13 15.0
2015-Sep-05 00:10 057 6 gusting 14 15.6
2015-Sep-04 23:55 049 9 gusting 14 15.6
2015-Sep-04 23:40 061 5 gusting 14 15.6
2015-Sep-04 23:25 005 6 gusting 14 16.1
2015-Sep-04 23:10 042 6 gusting 13 16.1
2015-Sep-04 22:55 072 6 gusting 13 16.1
2015-Sep-04 22:40 035 7 gusting 13 16.7
2015-Sep-04 22:25 051 7 gusting 13 16.7
2015-Sep-04 22:10 037 6 gusting 13 17.2
2015-Sep-04 21:55 084 7 gusting 13 17.2
2015-Sep-04 21:40 079 5 gusting 13 17.8
2015-Sep-04 21:25 065 4 gusting 12 17.8
2015-Sep-04 21:10 084 6 gusting 12 18.3
2015-Sep-04 20:55 053 3 gusting 11 18.9
2015-Sep-04 20:40 045 4 gusting 11 19.4
2015-Sep-04 20:25 057 5 gusting 11 19.4
2015-Sep-04 20:10 021 4 gusting 9 20.0
2015-Sep-04 19:55 038 7 gusting 13 20.6
2015-Sep-04 19:40 039 7 gusting 14 21.1
2015-Sep-04 19:25 049 5 gusting 8 21.7
2015-Sep-04 19:10 059 6 gusting 12 21.7
2015-Sep-04 18:55 040 3 gusting 12 22.2
2015-Sep-04 18:40 269 23.9
2015-Sep-04 18:25 263 0 gusting 4 24.4
2015-Sep-04 18:10 304 1 gusting 6 24.4
2015-Sep-04 17:55 248 25.0
2015-Sep-04 17:40 270 25.6
2015-Sep-04 17:25 269 26.1
2015-Sep-04 17:10 211 0 gusting 4 26.1
2015-Sep-04 16:55 302 0 gusting 6 26.1
2015-Sep-04 16:40 265 0 gusting 6 26.1
2015-Sep-04 16:25 187 2 gusting 8 26.1
2015-Sep-04 16:10 175 4 gusting 10 26.1
2015-Sep-04 15:55 304 1 gusting 8 26.1
2015-Sep-04 15:40 144 1 gusting 8 26.1
2015-Sep-04 15:25 268 1 gusting 6 26.1
2015-Sep-04 15:10 271 4 gusting 9 26.1
2015-Sep-04 14:55 317 5 gusting 15 25.6
2015-Sep-04 14:39 236 2 gusting 12 25.6
2015-Sep-04 13:54 236 1 gusting 7 24.4
2015-Sep-04 13:39 244 2 gusting 6 23.9
2015-Sep-04 13:24 232 1 gusting 6 22.8
2015-Sep-04 13:09 248 1 gusting 5 21.7
2015-Sep-04 12:39 129 1 gusting 6 22.8
2015-Sep-04 12:24 070 0 gusting 3 23.3
2015-Sep-04 12:09 065 23.9
2015-Sep-04 11:54 360 0 gusting 6 25.0
2015-Sep-04 11:39 060 3 gusting 6 24.4
2015-Sep-04 11:24 136 23.9
2015-Sep-04 11:09 080 23.3
2015-Sep-04 10:54 339 0 gusting 6 22.8
2015-Sep-04 10:39 063 2 gusting 8 22.2
2015-Sep-04 10:24 079 5 gusting 9 22.2
2015-Sep-04 10:09 049 4 gusting 8 21.7
2015-Sep-04 09:54 036 2 gusting 6 21.7
2015-Sep-04 09:39 066 1 gusting 5 20.6
2015-Sep-04 09:09 064 2 gusting 5 20.6
2015-Sep-04 08:54 262 1 gusting 5 20.0
2015-Sep-04 08:39 042 0 gusting 6 18.9
2015-Sep-04 08:24 027 2 gusting 6 18.3
2015-Sep-04 08:09 063 2 gusting 10 17.8
2015-Sep-04 07:54 076 2 gusting 8 17.2
2015-Sep-04 07:38 022 3 gusting 8 16.7
2015-Sep-04 07:23 059 3 gusting 8 16.7
2015-Sep-04 07:08 030 4 gusting 7 16.7
2015-Sep-04 06:53 027 4 gusting 8 16.1
2015-Sep-04 06:38 074 6 gusting 11 16.1
2015-Sep-04 06:08 051 2 gusting 6 15.6
2015-Sep-04 05:53 046 2 gusting 8 15.6
2015-Sep-04 05:38 034 4 gusting 11 15.6
2015-Sep-04 05:08 052 2 gusting 8 16.1
2015-Sep-04 04:53 042 3 gusting 8 16.1
2015-Sep-04 04:38 070 4 gusting 13 16.1
2015-Sep-04 04:23 038 4 gusting 9 16.1
2015-Sep-04 04:08 052 3 gusting 8 16.1
2015-Sep-04 03:53 049 4 gusting 11 16.1
2015-Sep-04 03:38 063 4 gusting 9 16.7
2015-Sep-04 03:23 037 5 gusting 10 16.7
2015-Sep-04 03:08 051 5 gusting 12 16.7
2015-Sep-04 02:53 058 5 gusting 11 16.7
2015-Sep-04 02:38 061 7 gusting 13 16.7
2015-Sep-04 02:23 059 6 gusting 12 16.7
2015-Sep-04 02:08 057 5 gusting 13 16.7
2015-Sep-04 01:38 036 6 gusting 12 17.2
2015-Sep-04 01:23 055 5 gusting 9 17.2
2015-Sep-04 01:08 069 5 gusting 12 17.2
2015-Sep-04 00:38 053 6 gusting 12 17.8
2015-Sep-04 00:23 041 5 gusting 12 17.8
2015-Sep-04 00:08 055 6 gusting 13 17.8
2015-Sep-03 23:53 039 6 gusting 11 18.3
2015-Sep-03 23:37 009 4 gusting 11 18.3
2015-Sep-03 23:22 036 6 gusting 12 18.3
2015-Sep-03 23:07 050 4 gusting 11 18.3
2015-Sep-03 22:52 041 5 gusting 12 18.9
2015-Sep-03 22:37 048 6 gusting 11 18.9
2015-Sep-03 22:22 036 6 gusting 14 19.4
2015-Sep-03 21:52 026 6 gusting 11 20.0
2015-Sep-03 21:22 028 6 gusting 14 20.6
2015-Sep-03 21:07 005 6 gusting 12 21.1
2015-Sep-03 20:52 049 3 gusting 8 21.7
2015-Sep-03 20:37 036 0 gusting 3 22.8
2015-Sep-03 20:22 254 22.8
2015-Sep-03 19:52 285 0 gusting 4 23.3
2015-Sep-03 19:37 242 0 gusting 4 23.3
2015-Sep-03 19:22 236 23.3
2015-Sep-03 19:07 232 23.3
2015-Sep-03 18:52 249 23.9
2015-Sep-03 18:37 254 0 gusting 4 24.4
2015-Sep-03 18:22 284 1 gusting 4 24.4
2015-Sep-03 18:07 223 0 gusting 4 25.0
2015-Sep-03 17:52 265 1 gusting 7 25.6
2015-Sep-03 17:37 242 0 gusting 6 26.1
2015-Sep-03 17:22 306 1 gusting 5 26.1
2015-Sep-03 17:07 238 1 gusting 6 26.1
2015-Sep-03 16:52 273 2 gusting 9 26.1
2015-Sep-03 16:37 275 2 gusting 6 26.1
2015-Sep-03 15:37 274 3 gusting 10 26.7
2015-Sep-03 14:22 273 0 gusting 10 26.1
2015-Sep-03 13:52 144 1 gusting 7 25.0
2015-Sep-03 13:37 205 3 gusting 12 25.0
2015-Sep-03 13:22 180 1 gusting 8 25.0
2015-Sep-03 13:07 311 3 gusting 9 24.4
2015-Sep-03 12:52 213 3 gusting 10 24.4
2015-Sep-03 12:37 278 1 gusting 9 23.9
2015-Sep-03 12:22 217 3 gusting 16 23.9
2015-Sep-03 11:22 216 5 gusting 12 23.3
2015-Sep-03 11:07 202 2 gusting 9 22.8
2015-Sep-03 10:37 175 2 gusting 9 22.8
2015-Sep-03 09:36 145 4 gusting 10 22.2
2015-Sep-03 09:06 207 3 gusting 9 21.7
2015-Sep-03 08:36 225 3 gusting 6 20.6
2015-Sep-03 08:21 225 1 gusting 6 20.0
2015-Sep-03 07:51 169 0 gusting 4 18.9
2015-Sep-03 07:36 196 1 gusting 4 18.9
2015-Sep-03 07:21 179 0 gusting 2 18.3
2015-Sep-03 06:51 261 17.8
2015-Sep-03 06:36 214 17.2
2015-Sep-03 06:21 197 0 gusting 3 17.2
2015-Sep-03 05:50 186 0 gusting 2 16.7
2015-Sep-03 05:20 188 3 gusting 5 18.3
2015-Sep-03 05:05 216 1 gusting 6 18.3